sensor_id;sensor_type;location;lat;lon;timestamp;P1;durP1;ratioP1;P2;durP2;ratioP2
65863;SDS011;52639;51.180;20.460;2024-01-11T00:01:08;169.63;;;57.00;;
65863;SDS011;52639;51.180;20.460;2024-01-11T00:05:14;164.67;;;54.30;;
65863;SDS011;52639;51.180;20.460;2024-01-11T00:51:50;147.15;;;48.42;;
65863;SDS011;52639;51.180;20.460;2024-01-11T00:55:52;110.25;;;42.90;;
65863;SDS011;52639;51.180;20.460;2024-01-11T00:59:55;127.75;;;45.42;;
65863;SDS011;52639;51.180;20.460;2024-01-11T02:01:11;90.65;;;31.08;;
65863;SDS011;52639;51.180;20.460;2024-01-11T02:05:15;105.43;;;38.15;;
65863;SDS011;52639;51.180;20.460;2024-01-11T02:09:21;99.10;;;36.40;;
65863;SDS011;52639;51.180;20.460;2024-01-11T02:13:26;96.35;;;38.45;;
65863;SDS011;52639;51.180;20.460;2024-01-11T02:17:32;100.43;;;33.67;;
65863;SDS011;52639;51.180;20.460;2024-01-11T02:21:35;105.10;;;34.75;;
65863;SDS011;52639;51.180;20.460;2024-01-11T02:25:40;112.93;;;38.75;;
65863;SDS011;52639;51.180;20.460;2024-01-11T02:55:27;95.88;;;34.75;;
65863;SDS011;52639;51.180;20.460;2024-01-11T02:59:31;81.72;;;29.63;;
65863;SDS011;52639;51.180;20.460;2024-01-11T03:03:34;60.83;;;25.95;;
65863;SDS011;52639;51.180;20.460;2024-01-11T03:07:37;75.85;;;29.35;;
65863;SDS011;52639;51.180;20.460;2024-01-11T03:11:42;65.00;;;29.40;;
65863;SDS011;52639;51.180;20.460;2024-01-11T03:15:45;55.92;;;27.48;;
65863;SDS011;52639;51.180;20.460;2024-01-11T03:19:49;46.00;;;20.67;;
65863;SDS011;52639;51.180;20.460;2024-01-11T03:23:52;45.33;;;22.95;;
65863;SDS011;52639;51.180;20.460;2024-01-11T03:27:59;67.75;;;30.20;;
65863;SDS011;52639;51.180;20.460;2024-01-11T03:32:03;69.35;;;26.83;;
65863;SDS011;52639;51.180;20.460;2024-01-11T03:36:07;45.92;;;23.52;;
65863;SDS011;52639;51.180;20.460;2024-01-11T03:40:11;42.72;;;15.57;;
65863;SDS011;52639;51.180;20.460;2024-01-11T03:44:19;15.23;;;9.07;;
65863;SDS011;52639;51.180;20.460;2024-01-11T03:48:22;51.38;;;20.63;;
65863;SDS011;52639;51.180;20.460;2024-01-11T03:52:26;60.85;;;27.17;;
65863;SDS011;52639;51.180;20.460;2024-01-11T03:56:29;22.83;;;13.00;;
65863;SDS011;52639;51.180;20.460;2024-01-11T04:00:38;107.50;;;33.35;;
65863;SDS011;52639;51.180;20.460;2024-01-11T04:04:49;77.95;;;32.33;;
65863;SDS011;52639;51.180;20.460;2024-01-11T04:08:59;50.70;;;22.50;;
65863;SDS011;52639;51.180;20.460;2024-01-11T04:13:07;80.07;;;29.77;;
65863;SDS011;52639;51.180;20.460;2024-01-11T04:17:12;73.70;;;28.40;;
65863;SDS011;52639;51.180;20.460;2024-01-11T04:21:21;70.25;;;27.50;;
65863;SDS011;52639;51.180;20.460;2024-01-11T04:25:25;73.57;;;30.02;;
65863;SDS011;52639;51.180;20.460;2024-01-11T04:29:29;74.65;;;31.23;;
65863;SDS011;52639;51.180;20.460;2024-01-11T04:33:37;74.28;;;29.95;;
65863;SDS011;52639;51.180;20.460;2024-01-11T04:37:43;66.78;;;24.13;;
65863;SDS011;52639;51.180;20.460;2024-01-11T04:41:45;97.35;;;37.30;;
65863;SDS011;52639;51.180;20.460;2024-01-11T04:45:49;98.70;;;36.55;;
65863;SDS011;52639;51.180;20.460;2024-01-11T04:49:53;66.88;;;26.70;;
65863;SDS011;52639;51.180;20.460;2024-01-11T04:53:56;104.15;;;38.72;;
65863;SDS011;52639;51.180;20.460;2024-01-11T04:58:00;68.13;;;24.80;;
65863;SDS011;52639;51.180;20.460;2024-01-11T05:02:03;89.72;;;35.00;;
65863;SDS011;52639;51.180;20.460;2024-01-11T05:06:14;91.78;;;29.35;;
65863;SDS011;52639;51.180;20.460;2024-01-11T05:52:34;93.72;;;33.58;;
65863;SDS011;52639;51.180;20.460;2024-01-11T06:07:45;92.50;;;28.92;;
65863;SDS011;52639;51.180;20.460;2024-01-11T06:11:48;71.40;;;28.38;;
65863;SDS011;52639;51.180;20.460;2024-01-11T06:15:51;105.28;;;35.95;;
65863;SDS011;52639;51.180;20.460;2024-01-11T06:19:55;93.20;;;32.47;;
65863;SDS011;52639;51.180;20.460;2024-01-11T06:24:39;65.93;;;24.77;;
65863;SDS011;52639;51.180;20.460;2024-01-11T06:28:42;54.17;;;24.45;;
65863;SDS011;52639;51.180;20.460;2024-01-11T06:32:46;77.55;;;27.15;;
65863;SDS011;52639;51.180;20.460;2024-01-11T06:36:49;74.68;;;29.80;;
65863;SDS011;52639;51.180;20.460;2024-01-11T06:40:54;94.25;;;30.17;;
65863;SDS011;52639;51.180;20.460;2024-01-11T06:44:57;83.25;;;26.83;;
65863;SDS011;52639;51.180;20.460;2024-01-11T06:49:00;55.20;;;22.40;;
65863;SDS011;52639;51.180;20.460;2024-01-11T06:53:04;85.60;;;35.88;;
65863;SDS011;52639;51.180;20.460;2024-01-11T06:57:12;82.70;;;29.23;;
65863;SDS011;52639;51.180;20.460;2024-01-11T07:01:15;78.45;;;28.50;;
65863;SDS011;52639;51.180;20.460;2024-01-11T07:05:18;86.13;;;32.60;;
65863;SDS011;52639;51.180;20.460;2024-01-11T07:09:21;93.32;;;30.15;;
65863;SDS011;52639;51.180;20.460;2024-01-11T07:13:25;100.63;;;37.83;;
65863;SDS011;52639;51.180;20.460;2024-01-11T07:17:28;85.20;;;33.67;;
65863;SDS011;52639;51.180;20.460;2024-01-11T07:21:32;85.10;;;34.47;;
65863;SDS011;52639;51.180;20.460;2024-01-11T07:25:35;67.13;;;24.45;;
65863;SDS011;52639;51.180;20.460;2024-01-11T07:29:40;75.57;;;29.30;;
65863;SDS011;52639;51.180;20.460;2024-01-11T07:33:43;73.85;;;27.10;;
65863;SDS011;52639;51.180;20.460;2024-01-11T07:37:47;99.47;;;35.95;;
65863;SDS011;52639;51.180;20.460;2024-01-11T07:41:52;83.63;;;30.10;;
65863;SDS011;52639;51.180;20.460;2024-01-11T07:45:58;84.82;;;29.13;;
65863;SDS011;52639;51.180;20.460;2024-01-11T07:50:02;87.38;;;32.40;;
65863;SDS011;52639;51.180;20.460;2024-01-11T07:54:08;103.07;;;37.70;;
65863;SDS011;52639;51.180;20.460;2024-01-11T07:58:11;43.33;;;15.48;;
65863;SDS011;52639;51.180;20.460;2024-01-11T08:02:20;96.35;;;35.35;;
65863;SDS011;52639;51.180;20.460;2024-01-11T08:06:24;31.20;;;11.35;;
65863;SDS011;52639;51.180;20.460;2024-01-11T08:10:27;66.65;;;26.77;;
65863;SDS011;52639;51.180;20.460;2024-01-11T08:14:31;57.88;;;22.65;;
65863;SDS011;52639;51.180;20.460;2024-01-11T08:18:36;99.25;;;33.88;;
65863;SDS011;52639;51.180;20.460;2024-01-11T08:22:40;94.25;;;35.58;;
65863;SDS011;52639;51.180;20.460;2024-01-11T08:26:44;67.80;;;27.58;;
65863;SDS011;52639;51.180;20.460;2024-01-11T08:30:48;91.05;;;30.83;;
65863;SDS011;52639;51.180;20.460;2024-01-11T08:34:52;85.93;;;32.05;;
65863;SDS011;52639;51.180;20.460;2024-01-11T08:38:55;91.63;;;35.17;;
65863;SDS011;52639;51.180;20.460;2024-01-11T08:42:59;51.75;;;19.17;;
65863;SDS011;52639;51.180;20.460;2024-01-11T08:47:02;93.38;;;32.95;;
65863;SDS011;52639;51.180;20.460;2024-01-11T08:51:09;82.72;;;32.35;;
65863;SDS011;52639;51.180;20.460;2024-01-11T08:55:12;81.25;;;30.60;;
65863;SDS011;52639;51.180;20.460;2024-01-11T08:59:18;109.43;;;37.90;;
65863;SDS011;52639;51.180;20.460;2024-01-11T09:17:45;77.22;;;28.70;;
65863;SDS011;52639;51.180;20.460;2024-01-11T09:21:48;102.65;;;35.15;;
65863;SDS011;52639;51.180;20.460;2024-01-11T09:25:51;90.40;;;34.00;;
65863;SDS011;52639;51.180;20.460;2024-01-11T09:29:55;92.88;;;34.65;;
65863;SDS011;52639;51.180;20.460;2024-01-11T09:33:59;87.35;;;30.20;;
65863;SDS011;52639;51.180;20.460;2024-01-11T09:38:02;105.85;;;39.63;;
65863;SDS011;52639;51.180;20.460;2024-01-11T09:42:07;87.40;;;31.73;;
65863;SDS011;52639;51.180;20.460;2024-01-11T09:46:11;86.95;;;30.85;;
65863;SDS011;52639;51.180;20.460;2024-01-11T09:50:16;74.85;;;28.33;;
65863;SDS011;52639;51.180;20.460;2024-01-11T09:54:20;77.72;;;30.90;;
65863;SDS011;52639;51.180;20.460;2024-01-11T09:58:57;63.03;;;21.95;;
65863;SDS011;52639;51.180;20.460;2024-01-11T10:03:01;92.15;;;32.63;;
65863;SDS011;52639;51.180;20.460;2024-01-11T10:07:06;92.85;;;34.00;;
65863;SDS011;52639;51.180;20.460;2024-01-11T10:15:21;83.85;;;34.30;;
65863;SDS011;52639;51.180;20.460;2024-01-11T10:19:26;87.60;;;31.95;;
65863;SDS011;52639;51.180;20.460;2024-01-11T10:24:18;114.13;;;38.92;;
65863;SDS011;52639;51.180;20.460;2024-01-11T10:28:24;44.97;;;18.40;;
65863;SDS011;52639;51.180;20.460;2024-01-11T10:32:29;97.28;;;34.08;;
65863;SDS011;52639;51.180;20.460;2024-01-11T10:36:56;87.95;;;32.25;;
65863;SDS011;52639;51.180;20.460;2024-01-11T10:51:02;61.97;;;27.05;;
65863;SDS011;52639;51.180;20.460;2024-01-11T11:00:33;98.60;;;33.83;;
65863;SDS011;52639;51.180;20.460;2024-01-11T11:04:37;99.90;;;36.72;;
65863;SDS011;52639;51.180;20.460;2024-01-11T11:08:42;71.50;;;26.67;;
65863;SDS011;52639;51.180;20.460;2024-01-11T11:12:48;65.43;;;24.40;;
65863;SDS011;52639;51.180;20.460;2024-01-11T11:16:52;95.70;;;34.35;;
65863;SDS011;52639;51.180;20.460;2024-01-11T11:20:55;81.90;;;34.22;;
65863;SDS011;52639;51.180;20.460;2024-01-11T11:25:08;89.47;;;32.33;;
65863;SDS011;52639;51.180;20.460;2024-01-11T11:29:14;72.82;;;28.65;;
65863;SDS011;52639;51.180;20.460;2024-01-11T11:33:18;74.85;;;31.58;;
65863;SDS011;52639;51.180;20.460;2024-01-11T11:37:23;78.57;;;29.77;;
65863;SDS011;52639;51.180;20.460;2024-01-11T11:45:38;53.80;;;17.60;;
65863;SDS011;52639;51.180;20.460;2024-01-11T11:54:07;79.47;;;28.17;;
65863;SDS011;52639;51.180;20.460;2024-01-11T11:58:12;79.82;;;30.60;;
65863;SDS011;52639;51.180;20.460;2024-01-11T12:02:18;51.47;;;20.95;;
65863;SDS011;52639;51.180;20.460;2024-01-11T12:06:23;79.03;;;32.80;;
65863;SDS011;52639;51.180;20.460;2024-01-11T12:10:28;81.10;;;31.85;;
65863;SDS011;52639;51.180;20.460;2024-01-11T12:14:31;63.50;;;25.73;;
65863;SDS011;52639;51.180;20.460;2024-01-11T12:18:35;80.90;;;33.17;;
65863;SDS011;52639;51.180;20.460;2024-01-11T12:22:38;82.60;;;27.92;;
65863;SDS011;52639;51.180;20.460;2024-01-11T12:26:41;79.45;;;29.52;;
65863;SDS011;52639;51.180;20.460;2024-01-11T12:30:45;87.07;;;28.60;;
65863;SDS011;52639;51.180;20.460;2024-01-11T12:34:52;72.65;;;28.88;;
65863;SDS011;52639;51.180;20.460;2024-01-11T12:38:55;82.38;;;32.53;;
65863;SDS011;52639;51.180;20.460;2024-01-11T12:43:00;79.00;;;28.13;;
65863;SDS011;52639;51.180;20.460;2024-01-11T12:47:07;40.65;;;16.95;;
65863;SDS011;52639;51.180;20.460;2024-01-11T12:51:13;63.55;;;27.75;;
65863;SDS011;52639;51.180;20.460;2024-01-11T12:55:19;74.15;;;28.60;;
65863;SDS011;52639;51.180;20.460;2024-01-11T12:59:25;64.05;;;25.25;;
65863;SDS011;52639;51.180;20.460;2024-01-11T13:03:28;83.32;;;31.38;;
65863;SDS011;52639;51.180;20.460;2024-01-11T13:07:33;69.65;;;26.40;;
65863;SDS011;52639;51.180;20.460;2024-01-11T13:11:36;64.40;;;23.92;;
65863;SDS011;52639;51.180;20.460;2024-01-11T13:15:41;80.30;;;31.38;;
65863;SDS011;52639;51.180;20.460;2024-01-11T13:19:44;81.60;;;29.20;;
65863;SDS011;52639;51.180;20.460;2024-01-11T13:23:49;65.43;;;24.95;;
65863;SDS011;52639;51.180;20.460;2024-01-11T13:27:52;76.28;;;27.60;;
65863;SDS011;52639;51.180;20.460;2024-01-11T13:31:56;76.45;;;29.27;;
65863;SDS011;52639;51.180;20.460;2024-01-11T13:35:59;63.85;;;26.42;;
65863;SDS011;52639;51.180;20.460;2024-01-11T13:40:07;56.58;;;22.58;;
65863;SDS011;52639;51.180;20.460;2024-01-11T13:44:12;65.68;;;24.83;;
65863;SDS011;52639;51.180;20.460;2024-01-11T13:48:16;63.83;;;25.50;;
65863;SDS011;52639;51.180;20.460;2024-01-11T13:52:19;47.75;;;19.55;;
65863;SDS011;52639;51.180;20.460;2024-01-11T13:56:23;55.08;;;18.13;;
65863;SDS011;52639;51.180;20.460;2024-01-11T14:00:27;37.88;;;14.23;;
65863;SDS011;52639;51.180;20.460;2024-01-11T14:04:30;22.70;;;10.55;;
65863;SDS011;52639;51.180;20.460;2024-01-11T14:08:33;49.28;;;18.80;;
65863;SDS011;52639;51.180;20.460;2024-01-11T14:12:38;58.75;;;23.25;;
65863;SDS011;52639;51.180;20.460;2024-01-11T14:16:41;67.28;;;22.48;;
65863;SDS011;52639;51.180;20.460;2024-01-11T14:20:44;55.65;;;19.52;;
65863;SDS011;52639;51.180;20.460;2024-01-11T14:24:47;51.45;;;21.52;;
65863;SDS011;52639;51.180;20.460;2024-01-11T14:28:52;61.20;;;21.50;;
65863;SDS011;52639;51.180;20.460;2024-01-11T14:32:55;33.92;;;15.93;;
65863;SDS011;52639;51.180;20.460;2024-01-11T14:36:58;48.17;;;17.88;;
65863;SDS011;52639;51.180;20.460;2024-01-11T14:41:02;49.35;;;17.20;;
65863;SDS011;52639;51.180;20.460;2024-01-11T14:45:08;61.25;;;20.50;;
65863;SDS011;52639;51.180;20.460;2024-01-11T14:49:12;44.95;;;17.88;;
65863;SDS011;52639;51.180;20.460;2024-01-11T14:53:15;48.60;;;18.80;;
65863;SDS011;52639;51.180;20.460;2024-01-11T14:57:18;44.53;;;18.63;;
65863;SDS011;52639;51.180;20.460;2024-01-11T15:01:25;49.45;;;20.48;;
65863;SDS011;52639;51.180;20.460;2024-01-11T15:05:29;43.38;;;17.50;;
65863;SDS011;52639;51.180;20.460;2024-01-11T15:09:33;52.75;;;19.77;;
65863;SDS011;52639;51.180;20.460;2024-01-11T15:13:37;44.90;;;17.17;;
65863;SDS011;52639;51.180;20.460;2024-01-11T15:17:42;42.90;;;15.68;;
65863;SDS011;52639;51.180;20.460;2024-01-11T15:21:48;42.00;;;18.35;;
65863;SDS011;52639;51.180;20.460;2024-01-11T15:25:52;51.83;;;17.33;;
65863;SDS011;52639;51.180;20.460;2024-01-11T15:29:56;35.03;;;15.48;;
65863;SDS011;52639;51.180;20.460;2024-01-11T15:34:04;32.40;;;13.65;;
65863;SDS011;52639;51.180;20.460;2024-01-11T15:38:09;39.63;;;14.35;;
65863;SDS011;52639;51.180;20.460;2024-01-11T15:42:12;47.65;;;17.13;;
65863;SDS011;52639;51.180;20.460;2024-01-11T15:46:15;38.90;;;15.02;;
65863;SDS011;52639;51.180;20.460;2024-01-11T15:54:38;47.90;;;20.38;;
65863;SDS011;52639;51.180;20.460;2024-01-11T15:58:42;35.70;;;14.10;;
65863;SDS011;52639;51.180;20.460;2024-01-11T16:02:49;33.38;;;15.32;;
65863;SDS011;52639;51.180;20.460;2024-01-11T16:06:56;50.58;;;17.85;;
65863;SDS011;52639;51.180;20.460;2024-01-11T16:11:02;44.67;;;17.08;;
65863;SDS011;52639;51.180;20.460;2024-01-11T16:15:06;55.47;;;20.27;;
65863;SDS011;52639;51.180;20.460;2024-01-11T16:19:11;64.35;;;21.77;;
65863;SDS011;52639;51.180;20.460;2024-01-11T16:23:15;62.10;;;22.00;;
65863;SDS011;52639;51.180;20.460;2024-01-11T16:27:18;59.50;;;21.13;;
65863;SDS011;52639;51.180;20.460;2024-01-11T16:31:22;56.55;;;21.33;;
65863;SDS011;52639;51.180;20.460;2024-01-11T16:35:25;51.38;;;20.52;;
65863;SDS011;52639;51.180;20.460;2024-01-11T16:39:30;49.42;;;16.77;;
65863;SDS011;52639;51.180;20.460;2024-01-11T16:43:33;53.28;;;18.67;;
65863;SDS011;52639;51.180;20.460;2024-01-11T16:47:37;46.97;;;19.60;;
65863;SDS011;52639;51.180;20.460;2024-01-11T16:51:44;51.45;;;19.90;;
65863;SDS011;52639;51.180;20.460;2024-01-11T16:55:49;51.47;;;19.30;;
65863;SDS011;52639;51.180;20.460;2024-01-11T16:59:52;35.20;;;14.43;;
65863;SDS011;52639;51.180;20.460;2024-01-11T17:03:55;43.47;;;18.20;;
65863;SDS011;52639;51.180;20.460;2024-01-11T17:07:58;47.70;;;20.20;;
65863;SDS011;52639;51.180;20.460;2024-01-11T17:12:03;50.45;;;17.75;;
65863;SDS011;52639;51.180;20.460;2024-01-11T17:16:06;64.30;;;23.33;;
65863;SDS011;52639;51.180;20.460;2024-01-11T17:20:11;55.65;;;21.77;;
65863;SDS011;52639;51.180;20.460;2024-01-11T17:24:14;66.03;;;24.98;;
65863;SDS011;52639;51.180;20.460;2024-01-11T17:28:19;56.00;;;23.70;;
65863;SDS011;52639;51.180;20.460;2024-01-11T17:32:22;60.72;;;23.20;;
65863;SDS011;52639;51.180;20.460;2024-01-11T17:36:25;59.05;;;22.73;;
65863;SDS011;52639;51.180;20.460;2024-01-11T17:40:28;58.30;;;23.13;;
65863;SDS011;52639;51.180;20.460;2024-01-11T17:44:36;60.88;;;22.05;;
65863;SDS011;52639;51.180;20.460;2024-01-11T17:48:40;56.83;;;19.35;;
65863;SDS011;52639;51.180;20.460;2024-01-11T17:52:43;54.88;;;22.77;;
65863;SDS011;52639;51.180;20.460;2024-01-11T17:56:49;52.28;;;21.27;;
65863;SDS011;52639;51.180;20.460;2024-01-11T18:00:54;44.92;;;18.52;;
65863;SDS011;52639;51.180;20.460;2024-01-11T18:04:59;45.97;;;16.38;;
65863;SDS011;52639;51.180;20.460;2024-01-11T18:09:02;53.88;;;21.00;;
65863;SDS011;52639;51.180;20.460;2024-01-11T18:13:05;49.85;;;21.17;;
65863;SDS011;52639;51.180;20.460;2024-01-11T18:17:10;43.40;;;17.38;;
65863;SDS011;52639;51.180;20.460;2024-01-11T18:21:16;49.53;;;18.80;;
65863;SDS011;52639;51.180;20.460;2024-01-11T18:25:20;49.40;;;19.40;;
65863;SDS011;52639;51.180;20.460;2024-01-11T18:29:25;48.53;;;19.20;;
65863;SDS011;52639;51.180;20.460;2024-01-11T18:33:29;50.60;;;20.10;;
65863;SDS011;52639;51.180;20.460;2024-01-11T18:37:35;52.47;;;20.70;;
65863;SDS011;52639;51.180;20.460;2024-01-11T18:41:43;55.08;;;19.48;;
65863;SDS011;52639;51.180;20.460;2024-01-11T18:45:46;43.20;;;17.42;;
65863;SDS011;52639;51.180;20.460;2024-01-11T18:49:57;61.45;;;19.88;;
65863;SDS011;52639;51.180;20.460;2024-01-11T18:54:01;45.40;;;16.55;;
65863;SDS011;52639;51.180;20.460;2024-01-11T18:58:05;34.60;;;13.50;;
65863;SDS011;52639;51.180;20.460;2024-01-11T19:02:11;46.47;;;19.40;;
65863;SDS011;52639;51.180;20.460;2024-01-11T19:06:16;45.50;;;17.13;;
65863;SDS011;52639;51.180;20.460;2024-01-11T19:10:19;37.90;;;15.80;;
65863;SDS011;52639;51.180;20.460;2024-01-11T19:14:22;44.30;;;17.13;;
65863;SDS011;52639;51.180;20.460;2024-01-11T19:18:25;43.33;;;18.33;;
65863;SDS011;52639;51.180;20.460;2024-01-11T19:22:30;50.28;;;20.23;;
65863;SDS011;52639;51.180;20.460;2024-01-11T19:26:39;41.83;;;17.23;;
65863;SDS011;52639;51.180;20.460;2024-01-11T19:30:43;35.08;;;16.17;;
65863;SDS011;52639;51.180;20.460;2024-01-11T19:34:46;45.92;;;17.58;;
65863;SDS011;52639;51.180;20.460;2024-01-11T19:38:50;39.10;;;17.42;;
65863;SDS011;52639;51.180;20.460;2024-01-11T19:42:53;40.47;;;17.75;;
65863;SDS011;52639;51.180;20.460;2024-01-11T19:46:56;42.88;;;18.08;;
65863;SDS011;52639;51.180;20.460;2024-01-11T19:51:01;42.35;;;16.00;;
65863;SDS011;52639;51.180;20.460;2024-01-11T19:55:06;42.67;;;17.05;;
65863;SDS011;52639;51.180;20.460;2024-01-11T19:59:10;44.08;;;17.83;;
65863;SDS011;52639;51.180;20.460;2024-01-11T20:03:14;34.83;;;14.45;;
65863;SDS011;52639;51.180;20.460;2024-01-11T20:07:17;20.45;;;10.50;;
65863;SDS011;52639;51.180;20.460;2024-01-11T20:11:22;48.08;;;16.95;;
65863;SDS011;52639;51.180;20.460;2024-01-11T20:15:25;61.05;;;20.33;;
65863;SDS011;52639;51.180;20.460;2024-01-11T20:19:28;32.22;;;13.07;;
65863;SDS011;52639;51.180;20.460;2024-01-11T20:23:31;41.88;;;17.48;;
65863;SDS011;52639;51.180;20.460;2024-01-11T20:27:39;42.78;;;17.25;;
65863;SDS011;52639;51.180;20.460;2024-01-11T20:31:43;42.20;;;16.58;;
65863;SDS011;52639;51.180;20.460;2024-01-11T20:35:46;95.43;;;33.50;;
65863;SDS011;52639;51.180;20.460;2024-01-11T20:39:53;36.92;;;15.50;;
65863;SDS011;52639;51.180;20.460;2024-01-11T20:43:58;64.90;;;29.17;;
65863;SDS011;52639;51.180;20.460;2024-01-11T20:48:02;43.15;;;17.40;;
65863;SDS011;52639;51.180;20.460;2024-01-11T20:52:06;36.53;;;16.00;;
65863;SDS011;52639;51.180;20.460;2024-01-11T20:56:09;32.10;;;13.93;;
65863;SDS011;52639;51.180;20.460;2024-01-11T21:00:15;40.15;;;17.02;;
65863;SDS011;52639;51.180;20.460;2024-01-11T21:04:19;48.42;;;18.10;;
65863;SDS011;52639;51.180;20.460;2024-01-11T21:08:23;50.03;;;18.60;;
65863;SDS011;52639;51.180;20.460;2024-01-11T21:12:26;56.90;;;24.33;;
65863;SDS011;52639;51.180;20.460;2024-01-11T21:16:30;26.17;;;10.00;;
65863;SDS011;52639;51.180;20.460;2024-01-11T21:20:33;37.75;;;16.65;;
65863;SDS011;52639;51.180;20.460;2024-01-11T21:24:36;38.17;;;14.23;;
65863;SDS011;52639;51.180;20.460;2024-01-11T21:28:39;39.25;;;15.63;;
65863;SDS011;52639;51.180;20.460;2024-01-11T21:32:44;31.15;;;14.90;;
65863;SDS011;52639;51.180;20.460;2024-01-11T21:36:46;38.40;;;15.63;;
65863;SDS011;52639;51.180;20.460;2024-01-11T21:40:49;43.08;;;17.13;;
65863;SDS011;52639;51.180;20.460;2024-01-11T21:44:53;38.95;;;16.65;;
65863;SDS011;52639;51.180;20.460;2024-01-11T21:48:57;37.22;;;16.42;;
65863;SDS011;52639;51.180;20.460;2024-01-11T21:53:02;37.90;;;14.55;;
65863;SDS011;52639;51.180;20.460;2024-01-11T21:57:06;40.58;;;15.77;;
65863;SDS011;52639;51.180;20.460;2024-01-11T22:01:09;34.90;;;14.77;;
65863;SDS011;52639;51.180;20.460;2024-01-11T22:05:15;31.92;;;14.25;;
65863;SDS011;52639;51.180;20.460;2024-01-11T22:09:18;31.60;;;13.35;;
65863;SDS011;52639;51.180;20.460;2024-01-11T22:13:24;43.38;;;16.85;;
65863;SDS011;52639;51.180;20.460;2024-01-11T22:17:28;38.45;;;15.70;;
65863;SDS011;52639;51.180;20.460;2024-01-11T22:21:36;38.22;;;16.20;;
65863;SDS011;52639;51.180;20.460;2024-01-11T22:25:40;37.95;;;16.02;;
65863;SDS011;52639;51.180;20.460;2024-01-11T22:29:45;42.22;;;16.85;;
65863;SDS011;52639;51.180;20.460;2024-01-11T22:33:48;39.30;;;16.42;;
65863;SDS011;52639;51.180;20.460;2024-01-11T22:37:53;37.15;;;14.85;;
65863;SDS011;52639;51.180;20.460;2024-01-11T22:41:56;38.95;;;17.10;;
65863;SDS011;52639;51.180;20.460;2024-01-11T22:46:00;33.10;;;13.60;;
65863;SDS011;52639;51.180;20.460;2024-01-11T22:50:03;28.20;;;12.68;;
65863;SDS011;52639;51.180;20.460;2024-01-11T22:54:09;34.78;;;13.75;;
65863;SDS011;52639;51.180;20.460;2024-01-11T22:58:12;16.38;;;6.07;;
65863;SDS011;52639;51.180;20.460;2024-01-11T23:02:16;33.15;;;11.60;;
65863;SDS011;52639;51.180;20.460;2024-01-11T23:06:19;24.63;;;11.95;;
65863;SDS011;52639;51.180;20.460;2024-01-11T23:10:24;25.20;;;11.48;;
65863;SDS011;52639;51.180;20.460;2024-01-11T23:14:27;22.77;;;7.78;;
65863;SDS011;52639;51.180;20.460;2024-01-11T23:18:30;19.98;;;8.27;;
65863;SDS011;52639;51.180;20.460;2024-01-11T23:22:34;18.05;;;9.23;;
65863;SDS011;52639;51.180;20.460;2024-01-11T23:26:42;12.63;;;6.60;;
65863;SDS011;52639;51.180;20.460;2024-01-11T23:30:45;15.95;;;7.72;;
65863;SDS011;52639;51.180;20.460;2024-01-11T23:34:48;17.33;;;6.15;;
65863;SDS011;52639;51.180;20.460;2024-01-11T23:38:51;13.57;;;6.47;;
65863;SDS011;52639;51.180;20.460;2024-01-11T23:42:58;11.13;;;3.85;;
65863;SDS011;52639;51.180;20.460;2024-01-11T23:47:02;8.05;;;4.15;;
65863;SDS011;52639;51.180;20.460;2024-01-11T23:51:05;11.18;;;5.35;;
65863;SDS011;52639;51.180;20.460;2024-01-11T23:55:08;15.52;;;5.55;;
65863;SDS011;52639;51.180;20.460;2024-01-11T23:59:18;11.65;;;5.38;;
